Test XHTML 1.0 Strict Page for WU-History Testing
Histórico de la Estación METEOCORUÑA
Diario Datos del Abril 16, 2018 Unidades:  Metrico    Inglés   Ambos
« Prev Dia
Sig Dia »
Diario Semanal Mensual Anual Rango
  Max: Min: Media:
Temp: -17.8 °C -12.9 °C -10.2 °C
Rocío: -17.8 °C -58.5 °C -14.2 °C
Humedad: Humidity % 52 % 67 %
Vel. viento: 0 km/h 7.7 km/h 40.1 km/h
Racha: 0 km/h - -
Viento:- - SSE
Presión: 0 hPa -114650 hPa -
Lluvia: 0 mm    
Historical Graphs
 
 
Busqueda de Abril 16, 2018
Hora Temp Rocío Presión Viento Vel. viento Racha Humedad Ratio lluvia (/hora) Radiación
-17.8 °C -17.8 °C 0 hPa Calm     Humidity % 0 mm SolarRadiationWatts/m^2 W/m2
00:00 -11.9 °C -13.7 °C 34405.1 hPa SSW 20.8 km/h 38.8 km/h 80 % 0 mm 0.0 W/m2
00:05 -12 °C -13.7 °C 34395 hPa South 23.3 km/h 46.7 km/h 81 % 0 mm 0.0 W/m2
00:10 -12 °C -13.7 °C 34395 hPa South 23.3 km/h 46.7 km/h 81 % 0 mm 0.0 W/m2
00:15 -12 °C -13.7 °C 34395 hPa South 23.3 km/h 46.7 km/h 81 % 0 mm 0.0 W/m2
00:20 -12 °C -13.7 °C 34395 hPa South 23.3 km/h 46.7 km/h 81 % 0 mm 0.0 W/m2
00:25 -12 °C -13.7 °C 34395 hPa South 23.3 km/h 46.7 km/h 81 % 0 mm 0.0 W/m2
00:47 -12.1 °C -13.7 °C 34418.7 hPa South 23.3 km/h 36.2 km/h 82 % 0 mm 0 W/m2
01:02 -12.1 °C -13.7 °C 34418.7 hPa South 23.3 km/h 41.4 km/h 83 % 0 mm 0 W/m2
01:07 -12.1 °C -13.7 °C 34418.7 hPa South 23.3 km/h 38.8 km/h 82 % 0 mm 0 W/m2
01:12 -12.1 °C -13.7 °C 34418.7 hPa South 23.3 km/h 38.8 km/h 82 % 0 mm 0 W/m2
01:17 -12.1 °C -13.7 °C 34418.7 hPa South 20.8 km/h 31.1 km/h 82 % 0 mm 0 W/m2
01:22 -12.1 °C -13.8 °C 34418.7 hPa South 20.8 km/h 36.2 km/h 81 % 0 mm 0 W/m2
01:27 -12.1 °C -13.8 °C 34418.7 hPa South 20.8 km/h 41.4 km/h 81 % 0 mm 0 W/m2
01:52 -12.2 °C -13.8 °C 34418.7 hPa South 20.8 km/h 38.8 km/h 82 % 0 mm 0 W/m2
01:57 -12.2 °C -13.9 °C 34418.7 hPa South 23.3 km/h 38.8 km/h 81 % 0 mm 0 W/m2
02:02 -12.2 °C -13.9 °C 34418.7 hPa South 23.3 km/h 41.4 km/h 81 % 0 mm 0 W/m2
02:07 -12.3 °C -14 °C 34418.7 hPa South 23.3 km/h 33.6 km/h 81 % 0 mm 0 W/m2
02:12 -12.3 °C -14 °C 34418.7 hPa South 23.3 km/h 36.2 km/h 81 % 0 mm 0 W/m2
02:17 -12.2 °C -13.9 °C 34418.7 hPa South 23.3 km/h 41.4 km/h 81 % 0 mm 0 W/m2
02:22 -12.2 °C -13.9 °C 34418.7 hPa South 23.3 km/h 33.6 km/h 81 % 0 mm 0 W/m2
02:47 -12.1 °C -13.9 °C 34418.7 hPa South 25.9 km/h 33.6 km/h 80 % 0 mm 0 W/m2
03:22 -12.2 °C -58.5 °C -114650 hPa South 18.2 km/h 36.2 km/h 80 % 0 mm 0 W/m2
04:02 -12.4 °C -14.1 °C 34405.1 hPa SSE 12.9 km/h 31.1 km/h 81 % 0 mm 0 W/m2
04:42 -12.3 °C -13.9 °C 34405.1 hPa SSE 15.6 km/h 23.3 km/h 82 % 0 mm 0 W/m2
05:22 -12.4 °C -14 °C 34418.7 hPa SSE 15.6 km/h 28.5 km/h 82 % 0 mm 0 W/m2
05:27 -12.4 °C -14 °C 34418.7 hPa SSE 15.6 km/h 25.9 km/h 82 % 0 mm 0 W/m2
05:32 -12.4 °C -14 °C 34418.7 hPa SSE 15.6 km/h 38.8 km/h 82 % 0 mm 0 W/m2
05:37 -12.3 °C -13.9 °C 34405.1 hPa SSE 15.6 km/h 31.1 km/h 82 % 0 mm 0 W/m2
05:42 -12.4 °C -14 °C 34405.1 hPa SSE 18.2 km/h 25.9 km/h 82 % 0 mm 0 W/m2
05:47 -12.5 °C -14.1 °C 34405.1 hPa SSE 18.2 km/h 28.5 km/h 82 % 0 mm 0 W/m2
06:27 -12.8 °C -58.5 °C -114650 hPa SSE 7.7 km/h 28.5 km/h 85 % 0 mm 0 W/m2
07:00 -12.9 °C -14 °C 34418.7 hPa SSE 20.8 km/h 54.4 km/h 87 % 0 mm 1 W/m2
07:30 -12.7 °C -13.9 °C 34428.8 hPa SSE 25.9 km/h 64.7 km/h 86 % 0 mm 23 W/m2
08:00 -12.4 °C -13.8 °C 34442.4 hPa SSE 25.9 km/h 57 km/h 85 % 0 mm 77 W/m2
08:27 -12.6 °C -13.8 °C -114650 hPa SE 28.5 km/h 54.4 km/h 86 % 0 mm 51 W/m2
08:30 -12.3 °C -13.6 °C 34442.4 hPa SSE 15.6 km/h 54.4 km/h 85 % 0 mm 169 W/m2
09:00 -11.9 °C -13.4 °C 34442.4 hPa SSE 12.9 km/h 44.1 km/h 83 % 0 mm 248 W/m2
09:30 -11.6 °C -13.4 °C 34442.4 hPa SSE 18.2 km/h 51.8 km/h 80 % 0 mm 328 W/m2
09:47 -11.8 °C -13.2 °C 34428.8 hPa SE 23.8 km/h 23.8 km/h 84 % 0 mm 299.0 W/m2
09:52 -11.6 °C -13.2 °C 34428.8 hPa SSE 44.7 km/h 44.7 km/h 83 % 0 mm 316.0 W/m2
09:57 -11.6 °C -13.3 °C 34428.8 hPa South 35.7 km/h 35.7 km/h 82 % 0 mm 320.0 W/m2
10:00 -11.2 °C -13.2 °C 34442.4 hPa SSE 18.2 km/h 64.7 km/h 79 % 0 mm 461 W/m2
10:02 -11.6 °C -13.4 °C 34418.7 hPa SSE 51.8 km/h 51.8 km/h 81 % 0 mm 318.0 W/m2
10:07 -11.6 °C -13.3 °C 34428.8 hPa SSE 35.7 km/h 35.7 km/h 81 % 0 mm 323.0 W/m2
10:12 -11.6 °C -13.3 °C 34428.8 hPa SSE 50.7 km/h 50.7 km/h 81 % 0 mm 295.0 W/m2
10:17 -11.5 °C -13.2 °C 34418.7 hPa SE 35.7 km/h 35.7 km/h 81 % 0 mm 381.0 W/m2
10:22 -11.3 °C -13.1 °C 34418.7 hPa South 41.4 km/h 41.4 km/h 81 % 0 mm 313.0 W/m2
10:27 -11.4 °C -13.3 °C 34418.7 hPa SSE 65.5 km/h 65.5 km/h 80 % 0 mm 323.0 W/m2
10:30 -10.9 °C -13.2 °C 34452.6 hPa SSE 20.8 km/h 62.1 km/h 76 % 0 mm 375 W/m2
10:32 -11.3 °C -13.2 °C 34418.7 hPa ESE 29.8 km/h 29.8 km/h 80 % 0 mm 438.0 W/m2
10:37 -11.2 °C -13 °C 34418.7 hPa ESE 41.7 km/h 41.7 km/h 80 % 0 mm 450.0 W/m2
10:42 -11.1 °C -13.1 °C 34418.7 hPa South 32.8 km/h 32.8 km/h 79 % 0 mm 497.0 W/m2
10:47 -11.1 °C -13.1 °C 34418.7 hPa South 44.7 km/h 44.7 km/h 78 % 0 mm 543.0 W/m2
10:52 -10.9 °C -12.9 °C 34418.7 hPa SE 31.1 km/h 31.1 km/h 78 % 0 mm 490.0 W/m2
10:57 -10.7 °C -12.9 °C 34428.8 hPa SE 44.7 km/h 44.7 km/h 77 % 0 mm 406.0 W/m2
11:00 -10.6 °C -13.3 °C 34462.7 hPa SSE 23.3 km/h 67.3 km/h 72 % 0 mm 490 W/m2
11:02 -10.8 °C -13 °C 34418.7 hPa SE 62.6 km/h 62.6 km/h 77 % 0 mm 422.0 W/m2
11:07 -10.9 °C -13.1 °C 34418.7 hPa NE 47.6 km/h 47.6 km/h 77 % 0 mm 281.0 W/m2
11:12 -11 °C -13.2 °C 34428.8 hPa SSE 50.7 km/h 50.7 km/h 77 % 0 mm 352.0 W/m2
11:17 -10.9 °C -12.9 °C 34428.8 hPa ESE 41.7 km/h 41.7 km/h 78 % 0 mm 439.0 W/m2
11:22 -10.8 °C -13 °C 34428.8 hPa SSE 53.6 km/h 53.6 km/h 77 % 0 mm 332.0 W/m2
11:27 -10.8 °C -12.9 °C 34428.8 hPa SSW 50.7 km/h 50.7 km/h 77 % 0 mm 461.0 W/m2
11:30 -10.3 °C -13.2 °C 34462.7 hPa SSE 25.9 km/h 77.7 km/h 71 % 0 mm 326 W/m2
11:32 -10.6 °C -12.9 °C 34428.8 hPa SSE 36.2 km/h 36.2 km/h 76 % 0 mm 517.0 W/m2
11:37 -10.6 °C -13.1 °C 34428.8 hPa SSE 50.7 km/h 50.7 km/h 74 % 0 mm 513.0 W/m2
11:42 -10.5 °C -13 °C 34442.4 hPa SSE 47.6 km/h 47.6 km/h 74 % 0 mm 524.0 W/m2
11:47 -10.4 °C -13.2 °C 34442.4 hPa SSE 59.5 km/h 59.5 km/h 72 % 0 mm 524.0 W/m2
11:52 -10.3 °C -12.9 °C 34442.4 hPa South 68.6 km/h 68.6 km/h 73 % 0 mm 654.0 W/m2
11:57 -10.3 °C -13.1 °C 34442.4 hPa South 65.5 km/h 65.5 km/h 72 % 0 mm 624.0 W/m2
12:00 -9.9 °C -13.2 °C 34452.6 hPa South 31.1 km/h 93.2 km/h 68 % 0 mm 641 W/m2
12:02 -10.3 °C -12.8 °C 34442.4 hPa SE 50.7 km/h 50.7 km/h 74 % 0 mm 642.0 W/m2
12:07 -10.1 °C -12.6 °C 34442.4 hPa SE 38.8 km/h 38.8 km/h 74 % 0 mm 220.0 W/m2
12:12 -10.3 °C -13.1 °C 34442.4 hPa South 50.7 km/h 50.7 km/h 72 % 0 mm 276.0 W/m2
12:17 -10.3 °C -13.2 °C 34442.4 hPa South 64.7 km/h 64.7 km/h 71 % 0 mm 302.0 W/m2
12:22 -10.3 °C -13.2 °C 34452.6 hPa SSE 47.6 km/h 47.6 km/h 71 % 0 mm 265.0 W/m2
12:27 -10.1 °C -13 °C 34452.6 hPa SSE 49.2 km/h 49.2 km/h 71 % 0 mm 788.0 W/m2
12:30 -9.6 °C -13.1 °C 34452.6 hPa SSE 28.5 km/h 72.6 km/h 66 % 0 mm 734 W/m2
12:32 -10.1 °C -13 °C 34452.6 hPa South 41.7 km/h 41.7 km/h 70 % 0 mm 355.0 W/m2
12:37 -9.9 °C -13 °C 34452.6 hPa SSE 77.4 km/h 77.4 km/h 69 % 0 mm 824.0 W/m2
12:42 -9.7 °C -13.1 °C 34452.6 hPa South 62.1 km/h 62.1 km/h 67 % 0 mm 380.0 W/m2
12:47 -9.9 °C -13.3 °C 34442.4 hPa SE 92.4 km/h 92.4 km/h 67 % 0 mm 380.0 W/m2
12:52 -9.9 °C -13 °C 34428.8 hPa South 38.8 km/h 38.8 km/h 69 % 0 mm 937.0 W/m2
12:57 -9.7 °C -12.9 °C 34442.4 hPa SSE 53.6 km/h 53.6 km/h 68 % 0 mm 633.0 W/m2
13:00 -9.4 °C -13.4 °C 34442.4 hPa SSE 36.2 km/h 80.3 km/h 62 % 0 mm 885 W/m2
13:02 -9.6 °C -12.9 °C 34442.4 hPa SSE 57 km/h 57 km/h 67 % 0 mm 974.0 W/m2
13:07 -9.6 °C -12.9 °C 34442.4 hPa South 50.7 km/h 50.7 km/h 67 % 0 mm 396.0 W/m2
13:12 -9.8 °C -13.2 °C 34442.4 hPa South 57 km/h 57 km/h 67 % 0 mm 272.0 W/m2
13:17 -9.7 °C -13.2 °C 34428.8 hPa NNW 71.5 km/h 71.5 km/h 66 % 0 mm 896.0 W/m2
13:22 -9.5 °C -13.1 °C 34428.8 hPa SSW 71.5 km/h 71.5 km/h 65 % 0 mm 856.0 W/m2
13:27 -9.4 °C -13.2 °C 34442.4 hPa SSE 68.6 km/h 68.6 km/h 64 % 0 mm 926.0 W/m2
13:32 -9.4 °C -13.2 °C 34428.8 hPa South 62.6 km/h 62.6 km/h 64 % 0 mm 921.0 W/m2
13:37 -9.3 °C -13.2 °C 34418.7 hPa South 74.5 km/h 74.5 km/h 63 % 0 mm 963.0 W/m2
13:42 -9.3 °C -13.5 °C 34418.7 hPa SE 80.5 km/h 80.5 km/h 61 % 0 mm 853.0 W/m2
13:47 -9.4 °C -13.4 °C 34428.8 hPa South 71.5 km/h 71.5 km/h 62 % 0 mm 823.0 W/m2
13:52 -9.3 °C -13.5 °C 34428.8 hPa South 68.6 km/h 68.6 km/h 61 % 0 mm 759.0 W/m2
13:57 -9.3 °C -13.3 °C 34418.7 hPa SSE 72.6 km/h 72.6 km/h 62 % 0 mm 870.0 W/m2
14:02 -9.2 °C -13.3 °C 34418.7 hPa SSE 71.5 km/h 71.5 km/h 61 % 0 mm 838.0 W/m2
14:07 -9.1 °C -13.4 °C 34405.1 hPa South 90.6 km/h 90.6 km/h 60 % 0 mm 954.0 W/m2
14:12 -9.2 °C -13.7 °C 34405.1 hPa South 92.4 km/h 92.4 km/h 59 % 0 mm 802.0 W/m2
14:17 -9.2 °C -13.5 °C 34418.7 hPa SSE 92.4 km/h 92.4 km/h 60 % 0 mm 761.0 W/m2
14:22 -9.2 °C -13.4 °C 34405.1 hPa SE 80.5 km/h 80.5 km/h 61 % 0 mm 397.0 W/m2
14:27 -9.1 °C -13.4 °C 34405.1 hPa South 56.6 km/h 56.6 km/h 60 % 0 mm 533.0 W/m2
14:32 -9.1 °C -13.3 °C 34395 hPa ESE 56.6 km/h 56.6 km/h 61 % 0 mm 385.0 W/m2
14:37 -9.1 °C -13.4 °C 34418.7 hPa SSE 28.5 km/h 62.1 km/h 60 % 0 mm 612 W/m2
14:42 -9.1 °C -13.6 °C 34395 hPa SSW 89.3 km/h 89.3 km/h 59 % 0 mm 457.0 W/m2
14:47 -9.1 °C -13.5 °C 34395 hPa SSE 65.5 km/h 65.5 km/h 59 % 0 mm 432.0 W/m2
14:52 -9 °C -13.4 °C 34395 hPa South 59.5 km/h 59.5 km/h 59 % 0 mm 659.0 W/m2
14:57 -9 °C -13.2 °C 34395 hPa SSE 36.2 km/h 36.2 km/h 61 % 0 mm 603.0 W/m2
15:02 -9 °C -13.3 °C 34395 hPa SSE 51.8 km/h 51.8 km/h 60 % 0 mm 603.0 W/m2
15:07 -9 °C -13.2 °C 34405.1 hPa SSE 23.3 km/h 57 km/h 61 % 0 mm 756 W/m2
15:12 -8.9 °C -13.2 °C 34405.1 hPa South 25.9 km/h 72.6 km/h 60 % 0 mm 830 W/m2
15:17 -8.9 °C -13.3 °C 34395 hPa SSE 62.6 km/h 62.6 km/h 59 % 0 mm 842.0 W/m2
15:22 -8.8 °C -13.2 °C 34405.1 hPa South 25.9 km/h 46.7 km/h 59 % 0 mm 830 W/m2
15:27 -8.8 °C -13.3 °C 34395 hPa ESE 32.8 km/h 32.8 km/h 59 % 0 mm 807.0 W/m2
15:32 -8.9 °C -13.3 °C 34395 hPa SE 62.6 km/h 62.6 km/h 60 % 0 mm 287.0 W/m2
15:37 -8.8 °C -13.3 °C 34405.1 hPa South 23.3 km/h 69.8 km/h 59 % 0 mm 729 W/m2
15:42 -8.8 °C -13.4 °C 34418.7 hPa South 28.5 km/h 67.3 km/h 58 % 0 mm 587 W/m2
15:47 -8.8 °C -13.3 °C 34418.7 hPa South 31.1 km/h 57 km/h 59 % 0 mm 809 W/m2
15:52 -8.7 °C -13.1 °C 34418.7 hPa SSE 25.9 km/h 41.4 km/h 60 % 0 mm 657 W/m2
15:57 -8.8 °C -13.2 °C 34395 hPa SE 44.1 km/h 44.1 km/h 59 % 0 mm 670.0 W/m2
16:02 -8.8 °C -13.5 °C 34428.8 hPa SSE 25.9 km/h 59.5 km/h 57 % 0 mm 722 W/m2
16:07 -8.8 °C -13.7 °C 34418.7 hPa South 33.6 km/h 75.2 km/h 56 % 0 mm 779 W/m2
16:12 -8.7 °C -13.2 °C 34395 hPa South 65.5 km/h 65.5 km/h 59 % 0 mm 689.0 W/m2
16:17 -8.8 °C -13.7 °C 34418.7 hPa South 36.2 km/h 67.3 km/h 56 % 0 mm 717 W/m2
16:22 -8.6 °C -13.4 °C 34428.8 hPa SSE 28.5 km/h 77.7 km/h 57 % 0 mm 705 W/m2
16:27 -8.7 °C -13.4 °C 34405.1 hPa SSE 28.5 km/h 57 km/h 57 % 0 mm 679 W/m2
16:32 -8.8 °C -13.6 °C 34395 hPa South 80.5 km/h 80.5 km/h 57 % 0 mm 724.0 W/m2
16:37 -8.8 °C -13.7 °C 34418.7 hPa SSE 33.6 km/h 75.2 km/h 56 % 0 mm 682 W/m2
16:42 -8.8 °C -13.6 °C 34418.7 hPa South 38.8 km/h 57 km/h 57 % 0 mm 701 W/m2
16:47 -8.8 °C -13.6 °C 34395 hPa SSE 64.7 km/h 64.7 km/h 57 % 0 mm 707.0 W/m2
16:52 -8.9 °C -13.5 °C 34395 hPa SE 75.2 km/h 75.2 km/h 58 % 0 mm 698.0 W/m2
16:57 -8.8 °C -13.4 °C 34418.7 hPa SSE 38.8 km/h 57 km/h 58 % 0 mm 684 W/m2
17:02 -8.7 °C -13.2 °C 34384.8 hPa SSE 69.8 km/h 69.8 km/h 58 % 0 mm 673.0 W/m2
17:07 -8.7 °C -13.6 °C 34384.8 hPa SE 56.6 km/h 56.6 km/h 56 % 0 mm 659.0 W/m2
17:12 -8.7 °C -13.7 °C 34384.8 hPa SE 59.5 km/h 59.5 km/h 55 % 0 mm 652.0 W/m2
17:17 -8.7 °C -14.2 °C 34395 hPa South 93.2 km/h 93.2 km/h 52 % 0 mm 647.0 W/m2
17:22 -8.7 °C -13.9 °C 34384.8 hPa South 71.5 km/h 71.5 km/h 54 % 0 mm 643.0 W/m2
17:27 -8.7 °C -14.1 °C 34395 hPa SE 89.3 km/h 89.3 km/h 53 % 0 mm 628.0 W/m2
17:32 -8.8 °C -14.1 °C 34395 hPa South 82.9 km/h 82.9 km/h 53 % 0 mm 610.0 W/m2
17:37 -8.8 °C -13.9 °C 34371.3 hPa SSE 57 km/h 57 km/h 54 % 0 mm 592.0 W/m2
17:42 -8.8 °C -14.1 °C 34384.8 hPa ESE 77.4 km/h 77.4 km/h 53 % 0 mm 573.0 W/m2
17:47 -8.7 °C -13.8 °C 34371.3 hPa SE 64.7 km/h 64.7 km/h 55 % 0 mm 568.0 W/m2
17:52 -8.8 °C -14.2 °C 34371.3 hPa SSE 80.3 km/h 80.3 km/h 53 % 0 mm 555.0 W/m2
17:57 -8.8 °C -14 °C 34384.8 hPa South 38.8 km/h 69.8 km/h 54 % 0 mm 538 W/m2
18:02 -8.7 °C -13.8 °C 34361.1 hPa South 44.1 km/h 44.1 km/h 55 % 0 mm 513.0 W/m2
18:07 -8.8 °C -14.3 °C 34384.8 hPa SSE 28.5 km/h 85.5 km/h 52 % 0 mm 513 W/m2
18:12 -8.8 °C -14.3 °C 34371.3 hPa SE 90.6 km/h 90.6 km/h 52 % 0 mm 503.0 W/m2
18:17 -8.8 °C -14.3 °C 34371.3 hPa SSE 86.4 km/h 86.4 km/h 52 % 0 mm 483.0 W/m2
18:22 -8.8 °C -14.2 °C 34371.3 hPa SSE 71.5 km/h 71.5 km/h 53 % 0 mm 476.0 W/m2
18:27 -8.8 °C -14.1 °C 34395 hPa SSE 41.4 km/h 64.7 km/h 53 % 0 mm 454 W/m2
18:32 -8.8 °C -14.2 °C 34384.8 hPa SSE 38.8 km/h 75.2 km/h 53 % 0 mm 422 W/m2
18:37 -8.8 °C -14.2 °C 34371.3 hPa East 83.4 km/h 83.4 km/h 53 % 0 mm 429.0 W/m2
18:42 -8.8 °C -14.1 °C 34361.1 hPa SE 47.6 km/h 47.6 km/h 53 % 0 mm 404.0 W/m2
18:47 -8.8 °C -14.1 °C 34371.3 hPa SSE 28.5 km/h 72.6 km/h 53 % 0 mm 388 W/m2
18:52 -8.8 °C -14.2 °C 34371.3 hPa SSE 36.2 km/h 77.7 km/h 53 % 0 mm 327 W/m2
18:57 -8.8 °C -14.1 °C 34347.6 hPa South 68.6 km/h 68.6 km/h 54 % 0 mm 374.0 W/m2
19:02 -8.8 °C -13.9 °C 34347.6 hPa SE 47.6 km/h 47.6 km/h 54 % 0 mm 359.0 W/m2
19:07 -8.7 °C -13.6 °C 34371.3 hPa SSE 28.5 km/h 44.1 km/h 56 % 0 mm 339 W/m2
19:12 -8.8 °C -13.7 °C 34371.3 hPa SSE 20.8 km/h 80.3 km/h 56 % 0 mm 325 W/m2
19:17 -8.8 °C -13.7 °C 34361.1 hPa SSE 56.6 km/h 56.6 km/h 56 % 0 mm 308.0 W/m2
19:22 -8.9 °C -13.6 °C 34371.3 hPa SE 25.9 km/h 72.6 km/h 57 % 0 mm 290 W/m2
19:27 -8.9 °C -13.5 °C 34361.1 hPa SSE 28.5 km/h 59.5 km/h 58 % 0 mm 278 W/m2
19:32 -8.9 °C -13.4 °C 34361.1 hPa SSE 28.5 km/h 57 km/h 59 % 0 mm 262 W/m2
19:37 -8.9 °C -13.7 °C 34371.3 hPa South 23.3 km/h 57 km/h 57 % 0 mm 246 W/m2
19:42 -9 °C -13.7 °C 34384.8 hPa SSE 25.9 km/h 67.3 km/h 57 % 0 mm 225 W/m2
19:47 -9 °C -13.7 °C 34371.3 hPa SSE 56.6 km/h 56.6 km/h 57 % 0 mm 207.0 W/m2
19:52 -9.1 °C -13.8 °C 34384.8 hPa SSE 36.2 km/h 59.5 km/h 57 % 0 mm 188 W/m2
19:57 -9.1 °C -13.9 °C 34384.8 hPa SSE 33.6 km/h 85.5 km/h 56 % 0 mm 169 W/m2
20:02 -9.1 °C -13.7 °C 34384.8 hPa South 31.1 km/h 54.4 km/h 58 % 0 mm 151 W/m2
20:07 -9.1 °C -13.8 °C 34384.8 hPa SSE 31.1 km/h 44.1 km/h 57 % 0 mm 132 W/m2
20:12 -9.1 °C -13.8 °C 34384.8 hPa SSE 25.9 km/h 57 km/h 57 % 0 mm 118 W/m2
20:17 -9.2 °C -13.9 °C 34384.8 hPa SSE 23.3 km/h 51.8 km/h 57 % 0 mm 100 W/m2
20:22 -9.2 °C -13.9 °C 34384.8 hPa SSE 25.9 km/h 49.2 km/h 57 % 0 mm 86 W/m2
20:27 -9.3 °C -14 °C 34384.8 hPa SSE 25.9 km/h 41.4 km/h 57 % 0 mm 70 W/m2
20:33 -9.3 °C -13.8 °C 34384.8 hPa SSE 20.8 km/h 41.4 km/h 58 % 0 mm 40 W/m2
20:38 -9.3 °C -13.9 °C 34395 hPa SSE 20.8 km/h 33.6 km/h 58 % 0 mm 46 W/m2
20:43 -9.4 °C -14.1 °C 34395 hPa SE 20.8 km/h 49.2 km/h 57 % 0 mm 26 W/m2
20:48 -9.4 °C -13.8 °C 34384.8 hPa SSE 20.8 km/h 31.1 km/h 59 % 0 mm 28 W/m2
20:53 -9.5 °C -13.9 °C 34395 hPa SE 18.2 km/h 31.1 km/h 59 % 0 mm 21 W/m2
20:58 -9.6 °C -13.8 °C 34395 hPa SSE 15.6 km/h 41.4 km/h 60 % 0 mm 18 W/m2
21:03 -9.6 °C -13.7 °C 34395 hPa SSE 15.6 km/h 41.4 km/h 61 % 0 mm 14 W/m2
21:08 -9.7 °C -13.8 °C 34395 hPa SSE 18.2 km/h 49.2 km/h 61 % 0 mm 11 W/m2
21:13 -9.7 °C -13.8 °C 34405.1 hPa SSE 20.8 km/h 62.1 km/h 61 % 0 mm 7 W/m2
21:18 -9.7 °C -13.8 °C 34395 hPa SSE 20.8 km/h 28.5 km/h 61 % 0 mm 0 W/m2
21:23 -9.8 °C -13.9 °C 34405.1 hPa SE 18.2 km/h 49.2 km/h 61 % 0 mm 0 W/m2
21:28 -9.8 °C -13.8 °C 34405.1 hPa SSE 23.3 km/h 80.3 km/h 62 % 0 mm 0 W/m2
21:46 -10.1 °C -13.8 °C 34405.1 hPa SSE 15.6 km/h 23.3 km/h 64 % 0 mm 0 W/m2
21:51 -10.1 °C -13.8 °C 34405.1 hPa SSE 12.9 km/h 44.1 km/h 64 % 0 mm 0 W/m2
21:56 -10.2 °C -13.9 °C 34418.7 hPa SE 15.6 km/h 41.4 km/h 64 % 0 mm 0 W/m2
22:01 -10.2 °C -13.8 °C 34418.7 hPa SSE 15.6 km/h 33.6 km/h 65 % 0 mm 0 W/m2
22:11 -10.2 °C -13.7 °C 34418.7 hPa SSE 15.6 km/h 20.8 km/h 66 % 0 mm 0 W/m2
22:31 -10.4 °C -13.7 °C 34442.4 hPa SSE 12.9 km/h 28.5 km/h 67 % 0 mm 0 W/m2
22:46 -10.4 °C -13.7 °C 34442.4 hPa SSE 20.8 km/h 36.2 km/h 68 % 0 mm 0 W/m2
22:56 -10.4 °C -13.6 °C 34452.6 hPa SSE 20.8 km/h 57 km/h 69 % 0 mm 0 W/m2
23:01 -10.4 °C -13.6 °C 34462.7 hPa SSE 23.3 km/h 41.4 km/h 68 % 0 mm 0 W/m2
23:06 -10.4 °C -13.6 °C 34462.7 hPa South 23.3 km/h 44.1 km/h 69 % 0 mm 0 W/m2
23:11 -10.4 °C -13.6 °C 34462.7 hPa South 23.3 km/h 49.2 km/h 69 % 0 mm 0 W/m2
23:16 -10.5 °C -13.6 °C 34462.7 hPa SSE 20.8 km/h 44.1 km/h 69 % 0 mm 0 W/m2
23:36 -10.7 °C -58.5 °C -114650 hPa East 18.2 km/h 46.7 km/h 70 % 0 mm 0 W/m2
23:46 -10.7 °C -13.7 °C 34462.7 hPa SE 23.3 km/h 57 km/h 70 % 0 mm 0 W/m2
Meteocoruña
Agradecimientos a Weather Underground - 3 mb